createdAt,value
2018-09-15T00:00:45.691Z,14.23
2018-09-15T00:03:13.748Z,14.40
2018-09-15T00:05:41.936Z,15.07
2018-09-15T00:08:10.069Z,14.90
2018-09-15T00:10:38.178Z,14.47
2018-09-15T00:13:06.431Z,14.37
2018-09-15T00:15:34.550Z,14.57
2018-09-15T00:18:04.568Z,13.07
2018-09-15T00:20:32.566Z,13.23
2018-09-15T00:23:00.565Z,13.00
2018-09-15T00:25:28.581Z,12.60
2018-09-15T00:27:57.140Z,13.47
2018-09-15T00:30:25.084Z,11.97
2018-09-15T00:32:53.174Z,12.60
2018-09-15T00:35:21.254Z,11.03
2018-09-15T00:37:49.233Z,12.40
2018-09-15T00:40:17.192Z,11.63
2018-09-15T00:42:45.388Z,11.27
2018-09-15T00:45:13.339Z,11.43
2018-09-15T00:47:41.311Z,11.37
2018-09-15T00:50:09.283Z,11.20
2018-09-15T00:52:37.284Z,10.63
2018-09-15T00:55:05.432Z,10.20
2018-09-15T00:57:33.442Z,10.97
2018-09-15T01:00:01.429Z,10.30
2018-09-15T01:02:29.408Z,10.53
2018-09-15T01:04:57.442Z,10.93
2018-09-15T01:07:25.423Z,10.10
2018-09-15T01:09:53.487Z,10.40
2018-09-15T01:12:21.464Z,10.10
2018-09-15T01:14:49.442Z,10.50
2018-09-15T01:17:17.389Z,10.47
2018-09-15T01:19:45.440Z,10.70
2018-09-15T01:22:13.382Z,11.37
2018-09-15T01:24:41.489Z,11.77
2018-09-15T01:27:09.424Z,12.90
2018-09-15T01:29:37.396Z,13.70
2018-09-15T01:32:05.372Z,14.23
2018-09-15T01:34:33.357Z,14.33
2018-09-15T01:37:01.337Z,15.27
2018-09-15T01:39:29.923Z,15.37
2018-09-15T01:41:58.473Z,15.20
2018-09-15T01:44:26.743Z,16.27
2018-09-15T01:46:54.864Z,15.77
2018-09-15T01:49:23.111Z,15.30
2018-09-15T01:51:51.493Z,17.07
2018-09-15T01:54:19.651Z,14.90
2018-09-15T01:56:47.637Z,15.93
2018-09-15T01:59:15.709Z,16.03
2018-09-15T02:01:43.667Z,15.50
2018-09-15T02:04:11.664Z,14.90
2018-09-15T02:06:39.615Z,15.03
2018-09-15T02:09:09.432Z,14.83
2018-09-15T02:11:37.375Z,16.17
2018-09-15T02:14:05.426Z,14.77
2018-09-15T02:16:33.491Z,15.63
2018-09-15T02:19:01.461Z,15.30
2018-09-15T02:21:29.472Z,15.60
2018-09-15T02:23:57.444Z,15.53
2018-09-15T02:26:25.376Z,14.90
2018-09-15T02:28:53.462Z,14.63
2018-09-15T02:31:21.365Z,14.37
2018-09-15T02:33:49.908Z,15.50
2018-09-15T02:36:17.875Z,14.40
2018-09-15T02:38:45.885Z,15.10
2018-09-15T02:41:14.434Z,14.53
2018-09-15T02:43:42.363Z,14.90
2018-09-15T02:46:10.400Z,15.00
2018-09-15T02:48:38.366Z,13.97
2018-09-15T02:51:06.358Z,14.40
2018-09-15T02:53:34.351Z,14.80
2018-09-15T02:56:02.285Z,15.00
2018-09-15T02:58:30.255Z,14.47
2018-09-15T03:00:58.399Z,15.27
2018-09-15T03:03:26.336Z,14.70
2018-09-15T03:05:54.555Z,14.73
2018-09-15T03:08:22.504Z,14.13
2018-09-15T03:10:50.536Z,14.63
2018-09-15T03:13:18.484Z,14.70
2018-09-15T03:15:46.481Z,14.80
2018-09-15T03:18:14.459Z,14.47
2018-09-15T03:20:42.528Z,15.57
2018-09-15T03:23:10.495Z,14.73
2018-09-15T03:25:38.450Z,14.13
2018-09-15T03:28:06.403Z,13.77
2018-09-15T03:30:34.465Z,14.00
2018-09-15T03:33:02.473Z,13.70
2018-09-15T03:35:30.451Z,14.60
2018-09-15T03:37:58.433Z,12.97
2018-09-15T03:40:26.387Z,13.70
2018-09-15T03:42:54.327Z,14.63
2018-09-15T03:45:22.319Z,13.70
2018-09-15T03:47:50.936Z,12.25
2018-09-15T03:50:18.875Z,13.10
2018-09-15T03:52:46.860Z,12.03
2018-09-15T03:55:14.788Z,11.47
2018-09-15T03:57:43.085Z,12.20
2018-09-15T04:00:11.266Z,11.97
2018-09-15T04:02:39.260Z,11.93
2018-09-15T04:05:07.221Z,12.63
2018-09-15T04:07:35.217Z,10.60
2018-09-15T04:10:03.220Z,11.07
2018-09-15T04:12:31.285Z,10.80
2018-09-15T04:14:59.384Z,11.55
2018-09-15T04:17:27.379Z,10.93
2018-09-15T04:19:55.420Z,10.30
2018-09-15T04:22:23.500Z,9.93
2018-09-15T04:24:51.557Z,9.30
2018-09-15T04:27:19.565Z,10.20
2018-09-15T04:29:47.594Z,9.60
2018-09-15T04:32:15.589Z,9.00
2018-09-15T04:34:43.598Z,9.60
2018-09-15T04:37:11.565Z,9.00
2018-09-15T04:39:39.543Z,9.20
2018-09-15T04:42:07.497Z,9.43
2018-09-15T04:44:35.481Z,9.70
2018-09-15T04:47:03.471Z,9.30
2018-09-15T04:49:31.423Z,9.70
2018-09-15T04:51:59.431Z,9.60
2018-09-15T04:54:27.395Z,9.30
2018-09-15T04:56:55.360Z,8.63
2018-09-15T04:59:23.331Z,9.13
2018-09-15T05:01:52.016Z,8.77
2018-09-15T05:04:19.960Z,9.03
2018-09-15T05:06:48.297Z,8.97
2018-09-15T05:09:16.468Z,8.80
2018-09-15T05:11:44.452Z,8.43
2018-09-15T05:14:12.589Z,8.37
2018-09-15T05:16:40.636Z,8.40
2018-09-15T05:19:08.627Z,8.30
2018-09-15T05:21:37.029Z,8.70
2018-09-15T05:24:05.279Z,8.33
2018-09-15T05:26:33.263Z,9.27
2018-09-15T05:29:01.379Z,8.30
2018-09-15T05:31:29.464Z,8.90
2018-09-15T05:33:57.359Z,8.90
2018-09-15T05:36:25.340Z,9.03
2018-09-15T05:38:53.289Z,8.70
2018-09-15T05:41:21.264Z,9.27
2018-09-15T05:43:49.228Z,9.70
2018-09-15T05:46:17.197Z,9.43
2018-09-15T05:48:45.167Z,9.27
2018-09-15T05:51:13.120Z,9.13
2018-09-15T05:53:41.080Z,9.57
2018-09-15T05:56:09.365Z,9.00
2018-09-15T05:58:37.235Z,9.10
2018-09-15T06:01:06.131Z,9.45
2018-09-15T06:03:34.487Z,9.40
2018-09-15T06:06:02.820Z,9.20
2018-09-15T06:08:31.073Z,9.00
2018-09-15T06:10:59.032Z,9.80
2018-09-15T06:13:27.038Z,9.80
2018-09-15T06:15:55.028Z,9.70
2018-09-15T06:18:23.159Z,9.60
2018-09-15T06:20:51.075Z,9.53
2018-09-15T06:23:19.081Z,9.20
2018-09-15T06:25:47.020Z,10.20
2018-09-15T06:28:14.968Z,9.43
2018-09-15T06:30:42.944Z,10.73
2018-09-15T06:33:11.042Z,10.43
2018-09-15T06:35:39.217Z,11.00
2018-09-15T06:38:07.339Z,10.57
2018-09-15T06:40:36.732Z,10.50
2018-09-15T06:43:05.266Z,11.27
2018-09-15T06:45:33.451Z,10.67
2018-09-15T06:48:01.457Z,11.20
2018-09-15T06:50:29.673Z,10.68
2018-09-15T06:52:57.737Z,10.45
2018-09-15T06:55:25.913Z,12.03
2018-09-15T06:57:53.890Z,10.50
2018-09-15T07:00:22.117Z,10.73
2018-09-15T07:02:50.176Z,10.70
2018-09-15T07:05:18.136Z,11.20
2018-09-15T07:07:46.120Z,11.07
2018-09-15T07:10:14.101Z,10.50
2018-09-15T07:12:42.058Z,11.07
2018-09-15T07:15:10.002Z,10.70
2018-09-15T07:17:38.045Z,11.00
2018-09-15T07:20:06.380Z,10.70
2018-09-15T07:22:34.540Z,10.63
2018-09-15T07:25:02.531Z,10.53
2018-09-15T07:27:30.528Z,10.27
2018-09-15T07:29:58.680Z,10.00
2018-09-15T07:32:26.692Z,10.70
2018-09-15T07:34:55.001Z,11.00
2018-09-15T07:37:23.048Z,10.53
2018-09-15T07:39:51.297Z,10.80
2018-09-15T07:42:19.326Z,9.95
2018-09-15T07:44:47.356Z,10.20
2018-09-15T07:47:15.357Z,10.07
2018-09-15T07:49:43.340Z,9.93
2018-09-15T07:52:11.316Z,10.33
2018-09-15T07:54:39.264Z,10.93
2018-09-15T07:57:07.208Z,11.17
2018-09-15T07:59:35.252Z,10.63
2018-09-15T08:02:07.996Z,11.13
2018-09-15T08:04:36.397Z,11.47
2018-09-15T08:07:04.803Z,11.67
2018-09-15T08:09:33.161Z,11.53
2018-09-15T08:12:01.248Z,10.23
2018-09-15T08:14:29.288Z,11.37
2018-09-15T08:16:57.285Z,11.10
2018-09-15T08:19:25.252Z,11.03
2018-09-15T08:21:53.332Z,11.10
2018-09-15T08:24:22.335Z,9.60
2018-09-15T08:26:50.287Z,9.80
2018-09-15T08:29:18.306Z,10.13
2018-09-15T08:31:46.247Z,10.20
2018-09-15T08:34:14.706Z,10.60
2018-09-15T08:36:42.648Z,10.30
2018-09-15T08:39:11.172Z,9.27
2018-09-15T08:41:39.352Z,7.97
2018-09-15T08:44:08.342Z,8.00
2018-09-15T08:46:36.446Z,7.23
2018-09-15T08:49:04.610Z,8.43
2018-09-15T08:51:33.618Z,7.93
2018-09-15T08:54:02.288Z,7.47
2018-09-15T08:56:31.242Z,8.17
2018-09-15T08:58:59.791Z,7.90
2018-09-15T09:01:28.067Z,6.97
2018-09-15T09:03:56.032Z,7.50
2018-09-15T09:06:24.471Z,6.93
2018-09-15T09:08:52.762Z,8.23
2018-09-15T09:11:20.761Z,7.07
2018-09-15T09:13:48.687Z,7.60
2018-09-15T09:16:16.675Z,7.57
2018-09-15T09:18:45.387Z,8.30
2018-09-15T09:21:13.328Z,7.57
2018-09-15T09:23:41.307Z,6.93
2018-09-15T09:26:09.334Z,6.90
2018-09-15T09:28:37.300Z,6.40
2018-09-15T09:31:05.309Z,6.80
2018-09-15T09:33:33.272Z,6.30
2018-09-15T09:36:01.250Z,6.10
2018-09-15T09:38:29.236Z,5.53
2018-09-15T09:40:57.311Z,6.13
2018-09-15T09:43:26.067Z,5.87
2018-09-15T09:45:54.064Z,6.07
2018-09-15T09:48:22.159Z,5.70
2018-09-15T09:50:50.088Z,6.70
2018-09-15T09:53:18.049Z,7.13
2018-09-15T09:55:45.986Z,6.87
2018-09-15T09:58:13.962Z,5.30
2018-09-15T10:00:47.534Z,4.90
2018-09-15T10:03:15.463Z,3.83
2018-09-15T10:05:43.388Z,4.33
2018-09-15T10:08:11.367Z,4.40
2018-09-15T10:10:39.358Z,4.40
2018-09-15T10:13:07.332Z,4.30
2018-09-15T10:15:35.324Z,3.77
2018-09-15T10:18:03.300Z,4.43
2018-09-15T10:20:31.318Z,3.57
2018-09-15T10:22:59.409Z,3.30
2018-09-15T10:25:27.308Z,3.47
2018-09-15T10:27:55.296Z,3.50
2018-09-15T10:30:23.224Z,3.80
2018-09-15T10:32:51.189Z,3.17
2018-09-15T10:35:19.170Z,3.00
2018-09-15T10:40:21.704Z,3.07
2018-09-15T10:42:49.752Z,2.90
2018-09-15T10:45:17.784Z,3.37
2018-09-15T10:47:45.775Z,4.23
2018-09-15T10:50:13.704Z,5.07
2018-09-15T10:52:41.755Z,4.37
2018-09-15T10:55:09.812Z,5.30
2018-09-15T10:57:37.764Z,5.03
2018-09-15T11:00:05.761Z,5.60
2018-09-15T11:02:33.673Z,6.10
2018-09-15T11:05:01.685Z,5.60
2018-09-15T11:07:29.861Z,5.77
2018-09-15T11:09:57.820Z,5.97
2018-09-15T11:12:25.748Z,5.63
2018-09-15T11:14:53.720Z,5.97
2018-09-15T11:17:21.687Z,5.80
2018-09-15T11:19:49.639Z,6.53
2018-09-15T11:22:17.623Z,5.10
2018-09-15T11:24:45.604Z,4.87
2018-09-15T11:27:13.550Z,5.50
2018-09-15T11:29:41.636Z,4.97
2018-09-15T11:32:09.626Z,5.47
2018-09-15T11:34:37.681Z,4.40
2018-09-15T11:37:05.864Z,4.80
2018-09-15T11:39:33.962Z,4.47
2018-09-15T11:42:02.482Z,4.90
2018-09-15T11:44:30.890Z,4.60
2018-09-15T11:46:58.853Z,3.60
2018-09-15T11:49:27.122Z,4.20
2018-09-15T11:51:55.312Z,3.70
2018-09-15T11:54:23.291Z,4.20
2018-09-15T11:56:51.448Z,3.70
2018-09-15T11:59:19.432Z,3.93
2018-09-15T12:01:47.561Z,4.07
2018-09-15T12:04:15.906Z,3.90
2018-09-15T12:06:44.374Z,3.80
2018-09-15T12:09:13.953Z,3.80
2018-09-15T12:11:42.384Z,4.53
2018-09-15T12:14:11.332Z,3.63
2018-09-15T12:16:39.924Z,4.03
2018-09-15T12:19:08.912Z,3.80
2018-09-15T12:21:37.521Z,3.53
2018-09-15T12:24:06.092Z,3.60
2018-09-15T12:26:34.092Z,3.63
2018-09-15T12:29:06.006Z,4.20
2018-09-15T12:31:35.343Z,3.70
2018-09-15T12:34:04.022Z,3.13
2018-09-15T12:36:34.343Z,3.70
2018-09-15T12:39:04.130Z,4.00
2018-09-15T12:41:32.401Z,4.30
2018-09-15T12:44:02.229Z,4.20
2018-09-15T12:46:30.202Z,4.40
2018-09-15T12:49:00.181Z,4.70
2018-09-15T12:51:29.737Z,4.63
2018-09-15T12:53:58.156Z,4.20
2018-09-15T12:56:26.107Z,4.30
2018-09-15T12:58:54.168Z,4.20
2018-09-15T13:01:22.100Z,4.33
2018-09-15T13:03:50.056Z,4.60
2018-09-15T13:06:18.056Z,4.30
2018-09-15T13:08:46.053Z,4.17
2018-09-15T13:11:13.963Z,3.73
2018-09-15T13:13:42.007Z,4.50
2018-09-15T13:16:10.006Z,3.90
2018-09-15T13:18:38.108Z,4.60
2018-09-15T13:21:06.044Z,4.00
2018-09-15T13:23:34.154Z,4.23
2018-09-15T13:26:02.148Z,4.37
2018-09-15T13:28:30.160Z,4.60
2018-09-15T13:30:58.155Z,4.23
2018-09-15T13:33:26.165Z,4.07
2018-09-15T13:35:54.112Z,4.40
2018-09-15T13:38:22.097Z,5.33
2018-09-15T13:40:50.561Z,4.53
2018-09-15T13:43:18.540Z,4.03
2018-09-15T13:45:46.516Z,3.93
2018-09-15T13:48:14.563Z,4.00
2018-09-15T13:50:42.551Z,3.30
2018-09-15T13:53:10.589Z,3.80
2018-09-15T13:55:38.524Z,3.43
2018-09-15T13:58:06.473Z,3.62
2018-09-15T14:00:34.457Z,3.30
2018-09-15T14:03:02.452Z,3.63
2018-09-15T14:05:30.417Z,3.67
2018-09-15T14:07:58.517Z,3.20
2018-09-15T14:10:26.488Z,3.60
2018-09-15T14:12:54.384Z,3.97
2018-09-15T14:15:22.377Z,3.97
2018-09-15T14:17:50.315Z,4.03
2018-09-15T14:20:18.324Z,3.70
2018-09-15T14:22:46.410Z,4.60
2018-09-15T14:25:14.407Z,4.60
2018-09-15T14:27:42.363Z,4.40
2018-09-15T14:30:10.340Z,4.73
2018-09-15T14:32:38.325Z,4.80
2018-09-15T14:35:06.260Z,3.80
2018-09-15T14:37:34.187Z,4.47
2018-09-15T14:40:02.203Z,4.80
2018-09-15T14:42:30.820Z,4.93
2018-09-15T14:44:59.072Z,4.60
2018-09-15T14:47:27.042Z,4.77
2018-09-15T14:49:55.016Z,4.00
2018-09-15T14:52:22.934Z,4.63
2018-09-15T14:54:50.986Z,4.60
2018-09-15T14:57:18.972Z,4.40
2018-09-15T14:59:46.946Z,4.47
2018-09-15T15:02:14.924Z,3.90
2018-09-15T15:04:43.012Z,3.37
2018-09-15T15:07:10.988Z,3.60
2018-09-15T15:09:38.977Z,3.80
2018-09-15T15:12:07.057Z,3.83
2018-09-15T15:14:35.013Z,4.30
2018-09-15T15:17:02.959Z,3.97
2018-09-15T15:19:31.392Z,4.27
2018-09-15T15:21:59.392Z,3.97
2018-09-15T15:24:27.353Z,3.70
2018-09-15T15:26:55.342Z,3.80
2018-09-15T15:29:23.336Z,3.73
2018-09-15T15:31:51.384Z,3.43
2018-09-15T15:34:19.326Z,4.27
2018-09-15T15:36:47.318Z,4.10
2018-09-15T15:39:15.304Z,4.27
2018-09-15T15:41:43.393Z,2.90
2018-09-15T15:44:11.324Z,2.90
2018-09-15T15:46:39.323Z,2.70
2018-09-15T15:49:07.268Z,4.13
2018-09-15T15:51:35.336Z,3.70
2018-09-15T15:54:03.229Z,2.90
2018-09-15T15:56:31.915Z,3.50
2018-09-15T15:58:59.919Z,2.90
2018-09-15T16:01:27.987Z,3.20
2018-09-15T16:03:55.935Z,2.73
2018-09-15T16:06:23.969Z,3.43
2018-09-15T16:08:52.276Z,3.40
2018-09-15T16:11:21.724Z,3.93
2018-09-15T16:13:50.172Z,3.20
2018-09-15T16:16:18.043Z,3.00
2018-09-15T16:18:46.053Z,4.10
2018-09-15T16:21:14.043Z,3.30
2018-09-15T16:23:42.176Z,4.03
2018-09-15T16:26:10.624Z,3.87
2018-09-15T16:28:38.568Z,3.37
2018-09-15T16:31:06.653Z,3.20
2018-09-15T16:33:34.848Z,3.00
2018-09-15T16:36:02.902Z,3.07
2018-09-15T16:38:30.932Z,3.20
2018-09-15T16:40:58.952Z,2.93
2018-09-15T16:43:26.964Z,2.97
2018-09-15T16:45:55.138Z,2.93
2018-09-15T16:48:23.463Z,3.17
2018-09-15T16:50:51.548Z,3.07
2018-09-15T16:53:19.506Z,3.17
2018-09-15T16:55:47.847Z,3.52
2018-09-15T16:58:16.348Z,3.40
2018-09-15T17:00:45.102Z,3.73
2018-09-15T17:03:13.093Z,3.50
2018-09-15T17:05:41.071Z,3.90
2018-09-15T17:08:09.024Z,3.10
2018-09-15T17:10:37.034Z,3.00
2018-09-15T17:13:05.004Z,3.10
2018-09-15T17:15:33.173Z,3.90
2018-09-15T17:18:01.241Z,3.37
2018-09-15T17:20:29.365Z,3.40
2018-09-15T17:22:57.334Z,3.40
2018-09-15T17:25:25.508Z,3.90
2018-09-15T17:27:53.456Z,3.50
2018-09-15T17:30:21.403Z,3.20
2018-09-15T17:32:49.660Z,3.53
2018-09-15T17:35:17.627Z,3.40
2018-09-15T17:37:45.671Z,3.33
2018-09-15T17:40:13.728Z,3.70
2018-09-15T17:42:41.817Z,3.73
2018-09-15T17:45:09.795Z,4.43
2018-09-15T17:47:37.724Z,3.77
2018-09-15T17:50:05.684Z,4.30
2018-09-15T17:52:33.682Z,6.30
2018-09-15T17:55:01.947Z,5.20
2018-09-15T17:57:29.943Z,4.33
2018-09-15T17:59:58.141Z,3.90
2018-09-15T18:02:26.081Z,3.60
2018-09-15T18:04:54.160Z,3.40
2018-09-15T18:07:22.104Z,3.40
2018-09-15T18:09:50.105Z,3.73
2018-09-15T18:12:18.367Z,3.80
2018-09-15T18:14:46.554Z,3.80
2018-09-15T18:17:14.571Z,4.17
2018-09-15T18:19:42.633Z,3.53
2018-09-15T18:22:10.748Z,4.20
2018-09-15T18:24:39.974Z,3.90
2018-09-15T18:27:08.398Z,4.27
2018-09-15T18:29:36.705Z,5.10
2018-09-15T18:32:06.962Z,4.10
2018-09-15T18:34:35.131Z,4.33
2018-09-15T18:37:04.160Z,4.23
2018-09-15T18:39:32.175Z,4.33
2018-09-15T18:42:01.041Z,4.50
2018-09-15T18:44:31.007Z,4.97
2018-09-15T18:46:59.769Z,4.60
2018-09-15T18:49:28.081Z,5.53
2018-09-15T18:51:56.113Z,5.00
2018-09-15T18:54:24.321Z,4.80
2018-09-15T18:56:52.435Z,4.70
2018-09-15T18:59:20.551Z,5.13
2018-09-15T19:01:48.806Z,4.40
2018-09-15T19:04:17.184Z,4.50
2018-09-15T19:06:45.139Z,4.47
2018-09-15T19:09:13.308Z,4.60
2018-09-15T19:11:41.685Z,4.17
2018-09-15T19:14:09.960Z,5.30
2018-09-15T19:16:38.106Z,5.17
2018-09-15T19:19:06.412Z,5.17
2018-09-15T19:21:34.454Z,5.17
2018-09-15T19:24:02.658Z,6.97
2018-09-15T19:26:30.826Z,4.43
2018-09-15T19:28:58.834Z,5.17
2018-09-15T19:31:26.803Z,5.03
2018-09-15T19:33:54.755Z,4.77
2018-09-15T19:36:22.712Z,4.87
2018-09-15T19:38:50.693Z,4.67
2018-09-15T19:41:18.814Z,4.40
2018-09-15T19:43:46.800Z,4.57
2018-09-15T19:46:14.965Z,4.50
2018-09-15T19:48:42.969Z,4.70
2018-09-15T19:51:11.013Z,4.80
2018-09-15T19:53:38.985Z,4.73
2018-09-15T19:56:06.944Z,4.97
2018-09-15T19:58:34.932Z,4.70
2018-09-15T20:01:02.966Z,4.70
2018-09-15T20:03:31.027Z,4.40
2018-09-15T20:05:59.126Z,4.23
2018-09-15T20:08:27.170Z,4.07
2018-09-15T20:10:55.211Z,4.00
2018-09-15T20:13:23.199Z,4.47
2018-09-15T20:15:50.371Z,4.73
2018-09-15T20:18:17.495Z,4.50
2018-09-15T20:20:44.693Z,5.07
2018-09-15T20:23:12.754Z,4.63
2018-09-15T20:25:40.797Z,4.87
2018-09-15T20:28:08.864Z,5.10
2018-09-15T20:30:37.249Z,5.80
2018-09-15T20:33:05.571Z,5.47
2018-09-15T20:35:33.913Z,4.80
2018-09-15T20:38:02.182Z,4.90
2018-09-15T20:40:30.635Z,5.10
2018-09-15T20:42:59.280Z,5.17
2018-09-15T20:45:28.525Z,5.00
2018-09-15T20:47:57.400Z,5.43
2018-09-15T20:50:25.455Z,5.00
2018-09-15T20:52:53.978Z,5.03
2018-09-15T20:55:22.082Z,5.70
2018-09-15T20:57:50.031Z,4.90
2018-09-15T21:00:18.059Z,5.03
2018-09-15T21:02:46.079Z,4.93
2018-09-15T21:05:14.123Z,5.27
2018-09-15T21:07:42.092Z,5.20
2018-09-15T21:10:10.236Z,5.30
2018-09-15T21:12:38.304Z,5.30
2018-09-15T21:15:06.275Z,4.93
2018-09-15T21:17:34.311Z,4.90
2018-09-15T21:20:02.292Z,5.53
2018-09-15T21:22:30.284Z,5.47
2018-09-15T21:24:58.300Z,5.70
2018-09-15T21:27:26.376Z,5.63
2018-09-15T21:29:54.516Z,6.23
2018-09-15T21:32:22.564Z,5.50
2018-09-15T21:34:50.568Z,5.27
2018-09-15T21:37:18.587Z,5.47
2018-09-15T21:39:46.595Z,6.53
2018-09-15T21:42:14.604Z,5.20
2018-09-15T21:44:42.653Z,5.07
2018-09-15T21:47:10.616Z,5.37
2018-09-15T21:49:38.556Z,5.37
2018-09-15T21:52:06.670Z,4.47
2018-09-15T21:54:34.851Z,4.50
2018-09-15T21:57:03.045Z,4.70
2018-09-15T21:59:31.397Z,5.27
2018-09-15T22:01:59.695Z,4.87
2018-09-15T22:04:28.400Z,5.20
2018-09-15T22:06:56.477Z,4.70
2018-09-15T22:09:24.438Z,5.10
2018-09-15T22:11:52.431Z,4.87
2018-09-15T22:14:20.380Z,5.20
2018-09-15T22:16:48.372Z,5.43
2018-09-15T22:19:16.382Z,5.40
2018-09-15T22:21:44.332Z,5.43
2018-09-15T22:24:12.276Z,5.70
2018-09-15T22:26:40.327Z,5.90
2018-09-15T22:29:08.289Z,6.97
2018-09-15T22:31:37.796Z,7.05
2018-09-15T22:34:06.007Z,7.10
2018-09-15T22:36:33.919Z,7.45
2018-09-15T22:39:01.983Z,7.00
2018-09-15T22:41:29.988Z,6.43
2018-09-15T22:43:58.091Z,6.73
2018-09-15T22:46:26.144Z,6.27
2018-09-15T22:48:54.272Z,6.70
2018-09-15T22:51:22.247Z,6.77
2018-09-15T22:53:50.250Z,6.80
2018-09-15T22:56:18.233Z,8.43
2018-09-15T22:58:46.310Z,8.00
2018-09-15T23:01:14.296Z,7.70
2018-09-15T23:03:42.284Z,8.50
2018-09-15T23:06:10.309Z,8.80
2018-09-15T23:08:38.288Z,8.27
2018-09-15T23:11:06.731Z,9.03
2018-09-15T23:13:34.723Z,8.57
2018-09-15T23:16:02.723Z,7.90
2018-09-15T23:18:30.841Z,8.17
2018-09-15T23:20:58.857Z,6.07
2018-09-15T23:23:26.802Z,6.03
2018-09-15T23:25:54.751Z,6.80
2018-09-15T23:28:22.791Z,7.50
2018-09-15T23:30:50.768Z,6.90
2018-09-15T23:33:18.730Z,7.13
2018-09-15T23:35:46.711Z,7.57
2018-09-15T23:38:14.720Z,7.27
2018-09-15T23:40:42.703Z,6.83
2018-09-15T23:43:10.658Z,7.20
2018-09-15T23:45:38.627Z,6.20
2018-09-15T23:48:06.607Z,7.00
2018-09-15T23:50:34.561Z,10.10
2018-09-15T23:53:02.607Z,10.77
2018-09-15T23:55:30.599Z,11.70
2018-09-15T23:57:58.687Z,9.17
